Time;durP1;ratioP1;P1;durP2;ratioP2;P2;SDS_P1;SDS_P2;PMS_P1;PMS_P2;Temp;Humidity;BMP_temperature;BMP_pressure;BME280_temperature;BME280_humidity;BME280_pressure;Samples;Min_cycle;Max_cycle;Signal;HPM_P1;HPM_P2
2022/03/19 00:00:58;;;;;;;6.20;2.92;;;;;;;;;;4982517;28;21497;-72
2022/03/19 00:03:25;;;;;;;5.90;2.65;;;;;;;;;;4994355;28;20037;-71
2022/03/19 00:05:51;;;;;;;4.82;2.70;;;;;;;;;;5001421;28;20022;-74
2022/03/19 00:08:16;;;;;;;6.53;2.90;;;;;;;;;;4987956;28;20058;-73
2022/03/19 00:10:42;;;;;;;6.53;2.90;;;;;;;;;;4982971;28;20023;-74
2022/03/19 00:13:09;;;;;;;5.97;2.90;;;;;;;;;;5010305;28;20320;-73
2022/03/19 00:15:34;;;;;;;5.40;2.53;;;;;;;;;;4999157;28;20064;-74
2022/03/19 00:17:59;;;;;;;5.85;2.80;;;;;;;;;;5002034;28;20329;-74
2022/03/19 00:20:25;;;;;;;7.35;2.80;;;;;;;;;;5001799;28;20306;-73
2022/03/19 00:22:51;;;;;;;6.97;2.90;;;;;;;;;;5001393;28;20045;-74
2022/03/19 00:25:17;;;;;;;7.95;3.10;;;;;;;;;;5002130;28;20101;-74
2022/03/19 00:27:42;;;;;;;5.88;2.50;;;;;;;;;;5001520;28;20076;-74
2022/03/19 00:30:09;;;;;;;5.97;2.70;;;;;;;;;;5002067;28;20113;-73
2022/03/19 00:32:34;;;;;;;8.52;2.47;;;;;;;;;;5001802;28;20010;-74
2022/03/19 00:35:00;;;;;;;7.00;2.65;;;;;;;;;;4998363;28;20081;-73
2022/03/19 00:37:25;;;;;;;6.25;2.50;;;;;;;;;;5001752;28;20053;-73
2022/03/19 00:39:51;;;;;;;5.57;2.70;;;;;;;;;;5001993;28;20333;-74
2022/03/19 00:42:16;;;;;;;5.47;2.60;;;;;;;;;;5001910;28;20018;-73
2022/03/19 00:44:43;;;;;;;5.70;2.40;;;;;;;;;;5001837;28;20098;-74
2022/03/19 00:47:08;;;;;;;4.45;2.42;;;;;;;;;;5000931;28;20026;-73
2022/03/19 00:49:34;;;;;;;5.28;2.55;;;;;;;;;;5001720;28;20018;-74
2022/03/19 00:51:59;;;;;;;6.72;2.50;;;;;;;;;;5001786;28;20089;-73
2022/03/19 00:54:24;;;;;;;6.18;2.60;;;;;;;;;;5001502;28;20084;-73
2022/03/19 00:56:50;;;;;;;8.43;2.50;;;;;;;;;;5002138;28;20029;-74
2022/03/19 00:59:15;;;;;;;5.20;2.60;;;;;;;;;;5002249;28;20222;-74
2022/03/19 01:01:41;;;;;;;5.25;2.55;;;;;;;;;;5001663;28;20068;-73
2022/03/19 01:04:06;;;;;;;7.95;2.60;;;;;;;;;;5002167;28;20206;-74
2022/03/19 01:06:32;;;;;;;6.18;2.50;;;;;;;;;;5002129;28;20034;-73
2022/03/19 01:08:57;;;;;;;5.85;2.58;;;;;;;;;;5002082;28;20097;-74
2022/03/19 01:11:23;;;;;;;6.20;2.60;;;;;;;;;;5001592;28;20222;-74
2022/03/19 01:13:51;;;;;;;6.05;2.65;;;;;;;;;;5001491;28;20041;-74
2022/03/19 01:16:18;;;;;;;8.25;2.88;;;;;;;;;;4999317;28;20029;-74
2022/03/19 01:18:45;;;;;;;6.38;2.58;;;;;;;;;;4999796;28;20365;-73
2022/03/19 01:21:10;;;;;;;6.22;2.70;;;;;;;;;;5000963;28;20090;-73
2022/03/19 01:23:35;;;;;;;5.30;2.60;;;;;;;;;;5001201;28;20425;-74
2022/03/19 01:26:01;;;;;;;4.95;2.58;;;;;;;;;;5000920;28;20030;-74
2022/03/19 01:28:26;;;;;;;8.18;2.80;;;;;;;;;;5001567;28;20093;-73
2022/03/19 01:30:52;;;;;;;5.80;2.65;;;;;;;;;;5000652;28;20018;-74
2022/03/19 01:33:17;;;;;;;5.93;2.50;;;;;;;;;;5001182;28;20076;-74
2022/03/19 01:35:42;;;;;;;6.57;2.60;;;;;;;;;;5000741;28;20029;-73
2022/03/19 01:38:08;;;;;;;6.90;2.42;;;;;;;;;;5000773;28;20034;-74
2022/03/19 01:40:33;;;;;;;6.80;2.72;;;;;;;;;;5000502;28;20049;-74
2022/03/19 01:43:00;;;;;;;6.07;2.92;;;;;;;;;;5000931;28;20109;-73
2022/03/19 01:45:25;;;;;;;6.03;2.70;;;;;;;;;;5000314;28;20023;-74
2022/03/19 01:47:52;;;;;;;5.47;2.85;;;;;;;;;;5000730;28;20086;-74
2022/03/19 01:50:19;;;;;;;7.07;3.20;;;;;;;;;;4999567;28;20034;-74
2022/03/19 01:52:44;;;;;;;5.82;2.85;;;;;;;;;;5000838;28;20102;-72
2022/03/19 01:55:11;;;;;;;7.00;3.08;;;;;;;;;;5000693;28;20088;-72
2022/03/19 01:57:41;;;;;;;7.80;3.45;;;;;;;;;;5000705;28;20026;-74
2022/03/19 02:00:09;;;;;;;7.40;3.13;;;;;;;;;;5000136;28;20226;-75
2022/03/19 02:02:35;;;;;;;8.48;3.20;;;;;;;;;;5000678;28;20069;-73
2022/03/19 02:05:03;;;;;;;8.45;3.55;;;;;;;;;;5000420;28;20325;-74
2022/03/19 02:07:30;;;;;;;9.23;3.65;;;;;;;;;;5000558;28;20030;-74
2022/03/19 02:10:02;;;;;;;6.78;2.95;;;;;;;;;;5000866;28;20014;-74
2022/03/19 02:12:27;;;;;;;7.40;3.25;;;;;;;;;;5001309;28;20318;-74
2022/03/19 02:14:53;;;;;;;7.40;3.30;;;;;;;;;;5000549;28;20052;-73
2022/03/19 02:17:19;;;;;;;6.15;3.00;;;;;;;;;;5001259;28;20022;-73
2022/03/19 02:19:53;;;;;;;7.82;3.00;;;;;;;;;;4999854;28;20029;-74
2022/03/19 02:22:20;;;;;;;7.78;3.33;;;;;;;;;;5000879;28;20033;-74
2022/03/19 02:27:31;;;;;;;7.38;3.03;;;;;;;;;;5001321;28;20086;-73
2022/03/19 02:29:57;;;;;;;8.43;3.55;;;;;;;;;;5000682;28;20220;-74
2022/03/19 02:32:23;;;;;;;8.88;3.30;;;;;;;;;;4993927;28;20222;-74
2022/03/19 02:34:49;;;;;;;7.78;3.45;;;;;;;;;;4980290;28;20023;-74
2022/03/19 02:37:14;;;;;;;6.40;3.08;;;;;;;;;;4998796;28;20070;-74
2022/03/19 02:39:40;;;;;;;6.82;3.40;;;;;;;;;;4979130;28;20031;-74
2022/03/19 02:42:07;;;;;;;10.43;3.58;;;;;;;;;;4980088;28;20331;-74
2022/03/19 02:44:34;;;;;;;8.38;3.97;;;;;;;;;;4979742;28;20053;-74
2022/03/19 02:47:03;;;;;;;8.90;3.50;;;;;;;;;;4980431;28;20191;-73
2022/03/19 02:49:29;;;;;;;11.93;3.50;;;;;;;;;;4979848;28;20045;-74
2022/03/19 02:51:55;;;;;;;9.30;3.60;;;;;;;;;;4984643;28;20318;-76
2022/03/19 02:54:22;;;;;;;8.70;3.75;;;;;;;;;;4983830;28;20180;-74
2022/03/19 02:56:49;;;;;;;9.02;3.63;;;;;;;;;;4984165;28;20026;-74
2022/03/19 02:59:26;;;;;;;7.50;3.50;;;;;;;;;;4983349;28;20035;-77
2022/03/19 03:01:54;;;;;;;8.07;3.40;;;;;;;;;;4983660;28;20030;-75
2022/03/19 03:04:20;;;;;;;11.15;3.60;;;;;;;;;;4983120;28;20031;-74
2022/03/19 03:06:48;;;;;;;8.38;3.80;;;;;;;;;;4987395;28;20034;-79
2022/03/19 03:09:14;;;;;;;10.65;4.20;;;;;;;;;;4984828;28;20022;-74
2022/03/19 03:11:40;;;;;;;9.35;4.50;;;;;;;;;;4988732;28;20030;-77
2022/03/19 03:14:08;;;;;;;11.27;4.00;;;;;;;;;;4989110;28;20054;-81
2022/03/19 03:16:34;;;;;;;12.43;4.40;;;;;;;;;;4983430;28;20034;-75
2022/03/19 03:19:05;;;;;;;11.60;4.13;;;;;;;;;;4983346;28;20558;-80
2022/03/19 03:21:32;;;;;;;9.05;4.47;;;;;;;;;;4983623;28;20034;-74
2022/03/19 03:23:57;;;;;;;9.75;4.47;;;;;;;;;;4983218;28;20026;-74
2022/03/19 03:26:23;;;;;;;9.93;4.30;;;;;;;;;;4983241;28;20034;-80
2022/03/19 03:28:49;;;;;;;12.15;5.07;;;;;;;;;;4983232;28;20056;-74
2022/03/19 03:31:14;;;;;;;11.32;4.65;;;;;;;;;;4982343;28;20027;-81
2022/03/19 03:33:40;;;;;;;10.20;4.90;;;;;;;;;;4982914;28;20019;-79
2022/03/19 03:36:06;;;;;;;10.32;4.82;;;;;;;;;;4984788;28;20027;-77
2022/03/19 03:38:31;;;;;;;11.80;5.05;;;;;;;;;;4992125;28;20304;-74
2022/03/19 03:40:57;;;;;;;12.35;5.10;;;;;;;;;;5000877;28;20030;-75
2022/03/19 03:43:22;;;;;;;13.38;5.20;;;;;;;;;;4982696;28;20038;-78
2022/03/19 03:45:49;;;;;;;10.75;4.95;;;;;;;;;;4982176;28;20054;-73
2022/03/19 03:48:14;;;;;;;13.07;5.45;;;;;;;;;;4982755;28;20308;-72
2022/03/19 03:50:40;;;;;;;11.88;5.32;;;;;;;;;;4997663;28;20046;-73
2022/03/19 03:53:07;;;;;;;10.90;5.13;;;;;;;;;;4982918;28;20025;-74
2022/03/19 03:55:34;;;;;;;10.90;5.28;;;;;;;;;;4982590;28;20341;-73
2022/03/19 03:58:01;;;;;;;12.75;5.78;;;;;;;;;;4982617;28;20062;-73
2022/03/19 04:00:27;;;;;;;11.98;5.63;;;;;;;;;;4981173;28;20027;-74
2022/03/19 04:02:53;;;;;;;13.00;5.90;;;;;;;;;;4981401;28;20086;-74
2022/03/19 04:05:19;;;;;;;13.00;5.60;;;;;;;;;;4981502;28;20239;-75
2022/03/19 04:07:44;;;;;;;14.23;6.13;;;;;;;;;;4983248;28;20027;-78
2022/03/19 04:10:10;;;;;;;12.52;5.97;;;;;;;;;;4985995;28;20019;-72
2022/03/19 04:12:36;;;;;;;11.82;6.13;;;;;;;;;;4982268;28;20037;-74
2022/03/19 04:15:02;;;;;;;16.65;7.25;;;;;;;;;;4985738;28;20023;-81
2022/03/19 04:17:27;;;;;;;14.90;6.90;;;;;;;;;;4984553;28;20043;-73
2022/03/19 04:19:52;;;;;;;16.38;7.13;;;;;;;;;;4982153;28;20018;-75
2022/03/19 04:22:18;;;;;;;14.07;6.43;;;;;;;;;;4982193;28;20065;-75
2022/03/19 04:24:43;;;;;;;17.63;7.55;;;;;;;;;;4982195;28;20028;-75
2022/03/19 04:27:10;;;;;;;18.80;7.53;;;;;;;;;;4990196;28;20030;-76
2022/03/19 04:29:36;;;;;;;13.10;7.07;;;;;;;;;;4982367;28;20026;-75
2022/03/19 04:32:01;;;;;;;15.95;7.93;;;;;;;;;;5000558;28;20097;-74
2022/03/19 04:34:27;;;;;;;19.38;7.10;;;;;;;;;;5002578;28;20026;-74
2022/03/19 04:36:53;;;;;;;17.38;7.45;;;;;;;;;;5002595;28;20101;-75
2022/03/19 04:39:18;;;;;;;16.40;7.38;;;;;;;;;;5002045;28;20050;-76
2022/03/19 04:41:44;;;;;;;16.55;7.68;;;;;;;;;;5002177;28;20022;-74
2022/03/19 04:44:10;;;;;;;15.73;7.70;;;;;;;;;;5001422;28;20097;-76
2022/03/19 04:46:36;;;;;;;17.80;8.02;;;;;;;;;;5002325;28;20095;-80
2022/03/19 04:49:02;;;;;;;16.73;8.05;;;;;;;;;;5002282;28;20392;-75
2022/03/19 04:51:32;;;;;;;17.70;8.38;;;;;;;;;;5002310;28;20049;-81
2022/03/19 04:53:57;;;;;;;18.98;8.38;;;;;;;;;;5002295;28;20318;-78
2022/03/19 04:56:24;;;;;;;19.15;8.40;;;;;;;;;;5002174;28;20099;-76
2022/03/19 04:58:52;;;;;;;19.10;8.23;;;;;;;;;;5002325;28;20027;-75
2022/03/19 05:01:18;;;;;;;19.23;8.30;;;;;;;;;;5000935;28;20348;-81
2022/03/19 05:03:43;;;;;;;19.38;8.20;;;;;;;;;;5002142;28;20038;-76
2022/03/19 05:06:08;;;;;;;21.05;9.20;;;;;;;;;;5002202;28;20033;-75
2022/03/19 05:08:34;;;;;;;18.83;9.48;;;;;;;;;;5002110;28;20034;-79
2022/03/19 05:11:16;;;;;;;21.23;9.68;;;;;;;;;;5001771;28;20065;-81
2022/03/19 05:13:48;;;;;;;21.50;9.23;;;;;;;;;;5001643;28;20021;-75
2022/03/19 05:16:15;;;;;;;21.27;9.70;;;;;;;;;;5001672;28;20083;-74
2022/03/19 05:18:40;;;;;;;23.40;10.35;;;;;;;;;;5001797;28;20093;-75
2022/03/19 05:21:06;;;;;;;19.23;9.55;;;;;;;;;;5001778;28;20336;-75
2022/03/19 05:23:32;;;;;;;21.90;10.23;;;;;;;;;;5002094;28;20022;-81
2022/03/19 05:25:58;;;;;;;23.75;9.35;;;;;;;;;;5001750;28;20038;-79
2022/03/19 05:28:24;;;;;;;23.38;8.95;;;;;;;;;;5001850;28;20056;-74
2022/03/19 05:30:50;;;;;;;20.50;10.07;;;;;;;;;;5001833;28;20033;-74
2022/03/19 05:33:15;;;;;;;22.45;10.18;;;;;;;;;;5001492;28;20018;-74
2022/03/19 05:35:42;;;;;;;22.23;10.65;;;;;;;;;;5001364;28;20034;-74
2022/03/19 05:38:08;;;;;;;20.73;10.32;;;;;;;;;;5001439;28;20084;-74
2022/03/19 05:40:33;;;;;;;20.73;10.63;;;;;;;;;;5001501;28;20030;-73
2022/03/19 05:42:59;;;;;;;21.75;10.13;;;;;;;;;;5001810;28;20026;-73
2022/03/19 05:45:24;;;;;;;24.20;10.65;;;;;;;;;;4999576;28;20026;-74
2022/03/19 05:47:50;;;;;;;20.15;10.05;;;;;;;;;;5001358;28;20033;-73
2022/03/19 05:50:16;;;;;;;23.25;10.43;;;;;;;;;;5001304;28;20029;-73
2022/03/19 05:52:42;;;;;;;23.15;11.05;;;;;;;;;;5001349;28;20144;-74
2022/03/19 05:55:08;;;;;;;23.40;10.45;;;;;;;;;;5001681;28;20034;-73
2022/03/19 05:57:34;;;;;;;24.35;11.27;;;;;;;;;;5001501;28;20026;-73
2022/03/19 06:00:00;;;;;;;25.38;11.07;;;;;;;;;;5001735;28;20037;-74
2022/03/19 06:02:25;;;;;;;23.15;11.05;;;;;;;;;;5001280;28;20026;-73
2022/03/19 06:04:54;;;;;;;25.02;11.73;;;;;;;;;;5001161;28;20026;-74
2022/03/19 06:07:19;;;;;;;25.48;11.57;;;;;;;;;;5001114;28;20022;-74
2022/03/19 06:09:45;;;;;;;26.83;12.70;;;;;;;;;;5001398;28;20046;-73
2022/03/19 06:12:10;;;;;;;29.02;13.88;;;;;;;;;;5001327;28;20094;-73
2022/03/19 06:14:36;;;;;;;29.67;13.45;;;;;;;;;;5001387;28;20026;-73
2022/03/19 06:17:01;;;;;;;26.13;12.75;;;;;;;;;;5001295;28;20389;-74
2022/03/19 06:19:27;;;;;;;28.80;13.70;;;;;;;;;;5000911;28;20058;-73
2022/03/19 06:21:52;;;;;;;30.73;14.30;;;;;;;;;;5001142;28;20032;-73
2022/03/19 06:24:18;;;;;;;31.35;14.48;;;;;;;;;;5001183;28;20034;-74
2022/03/19 06:26:43;;;;;;;31.63;14.00;;;;;;;;;;5004389;28;20029;-73
2022/03/19 06:29:09;;;;;;;30.08;14.10;;;;;;;;;;5004914;28;20050;-74
2022/03/19 06:31:34;;;;;;;34.03;15.38;;;;;;;;;;5003622;28;20046;-74
2022/03/19 06:34:00;;;;;;;35.08;16.08;;;;;;;;;;5004839;28;20141;-74
2022/03/19 06:39:09;;;;;;;30.10;14.02;;;;;;;;;;5004890;28;20029;-73
2022/03/19 06:41:35;;;;;;;30.77;14.65;;;;;;;;;;5003916;28;20033;-75
2022/03/19 06:44:00;;;;;;;35.67;15.38;;;;;;;;;;5004738;28;20218;-72
2022/03/19 06:46:26;;;;;;;34.58;16.25;;;;;;;;;;5004510;28;20034;-71
2022/03/19 06:48:51;;;;;;;36.53;15.98;;;;;;;;;;5004779;28;20101;-72
2022/03/19 06:51:18;;;;;;;35.08;16.08;;;;;;;;;;5004057;28;20226;-72
2022/03/19 06:53:47;;;;;;;33.97;15.77;;;;;;;;;;5004648;28;20023;-73
2022/03/19 06:56:14;;;;;;;34.15;15.75;;;;;;;;;;5004265;28;20341;-73
2022/03/19 06:58:41;;;;;;;36.35;16.60;;;;;;;;;;5004532;28;20026;-72
2022/03/19 07:01:09;;;;;;;32.13;15.15;;;;;;;;;;5003655;28;20022;-73
2022/03/19 07:03:34;;;;;;;35.83;16.52;;;;;;;;;;5004213;28;20049;-73
2022/03/19 07:06:00;;;;;;;34.72;15.65;;;;;;;;;;5036080;28;20038;-73
2022/03/19 07:08:25;;;;;;;39.55;16.80;;;;;;;;;;5004006;28;20377;-71
2022/03/19 07:10:50;;;;;;;36.67;16.35;;;;;;;;;;5004033;28;20096;-71
2022/03/19 07:13:16;;;;;;;34.75;16.33;;;;;;;;;;5004063;28;20026;-71
2022/03/19 07:15:41;;;;;;;35.78;16.65;;;;;;;;;;5004208;28;20081;-71
2022/03/19 07:18:07;;;;;;;36.42;17.05;;;;;;;;;;5004026;28;20026;-70
2022/03/19 07:20:33;;;;;;;35.53;17.40;;;;;;;;;;5003994;28;20259;-71
2022/03/19 07:23:07;;;;;;;36.53;16.65;;;;;;;;;;5003841;28;20027;-70
2022/03/19 07:25:37;;;;;;;37.50;18.15;;;;;;;;;;5004245;28;20318;-71
2022/03/19 07:28:06;;;;;;;38.90;19.02;;;;;;;;;;5003457;28;20105;-71
2022/03/19 07:30:32;;;;;;;41.50;19.30;;;;;;;;;;5004016;28;20304;-70
2022/03/19 07:32:58;;;;;;;41.05;19.33;;;;;;;;;;5003990;28;20025;-71
2022/03/19 07:35:23;;;;;;;44.92;21.60;;;;;;;;;;5003850;28;20037;-71
2022/03/19 07:37:49;;;;;;;47.22;22.77;;;;;;;;;;5003617;28;20042;-70
2022/03/19 07:41:45;;;;;;;42.88;21.45;;;;;;;;;;5004002;28;20057;-71
2022/03/19 07:43:06;;;;;;;51.63;21.73;;;;;;;;;;5003700;28;20040;-70
2022/03/19 07:45:32;;;;;;;42.63;20.42;;;;;;;;;;5003980;28;20030;-71
2022/03/19 07:47:58;;;;;;;48.88;21.55;;;;;;;;;;5003336;28;20041;-71
2022/03/19 07:50:23;;;;;;;47.70;20.77;;;;;;;;;;5003337;28;20030;-71
2022/03/19 07:52:49;;;;;;;49.28;21.98;;;;;;;;;;5003448;28;20035;-71
2022/03/19 07:55:14;;;;;;;44.88;21.27;;;;;;;;;;5004109;28;20256;-71
2022/03/19 07:57:40;;;;;;;44.25;23.02;;;;;;;;;;5003050;28;20037;-71
2022/03/19 08:00:06;;;;;;;49.00;21.05;;;;;;;;;;5002318;28;20022;-71
2022/03/19 08:02:32;;;;;;;43.60;21.00;;;;;;;;;;5003214;28;20030;-71
2022/03/19 08:05:00;;;;;;;46.25;22.40;;;;;;;;;;5003213;28;20026;-72
2022/03/19 08:07:25;;;;;;;46.30;21.58;;;;;;;;;;5001454;28;20026;-71
2022/03/19 08:09:50;;;;;;;42.38;20.90;;;;;;;;;;5001876;28;20102;-71
2022/03/19 08:12:16;;;;;;;42.05;21.00;;;;;;;;;;5003130;28;20030;-71
2022/03/19 08:14:41;;;;;;;38.83;18.65;;;;;;;;;;5003329;28;20029;-70
2022/03/19 08:17:07;;;;;;;42.22;20.40;;;;;;;;;;5002614;28;20032;-71
2022/03/19 08:19:32;;;;;;;45.05;20.65;;;;;;;;;;5002757;28;20030;-72
2022/03/19 08:21:57;;;;;;;41.63;21.08;;;;;;;;;;5002352;28;20034;-72
2022/03/19 08:24:25;;;;;;;42.00;22.15;;;;;;;;;;5014900;28;20030;-70
2022/03/19 08:26:53;;;;;;;43.92;21.50;;;;;;;;;;5002859;28;20025;-70
2022/03/19 08:29:19;;;;;;;43.90;21.20;;;;;;;;;;5006726;28;20347;-70
2022/03/19 08:31:44;;;;;;;43.90;21.33;;;;;;;;;;5002835;28;20030;-70
2022/03/19 08:34:10;;;;;;;44.85;21.27;;;;;;;;;;5017407;28;20026;-73
2022/03/19 08:36:35;;;;;;;43.50;20.73;;;;;;;;;;5021987;28;20064;-70
2022/03/19 08:41:44;;;;;;;42.78;20.73;;;;;;;;;;5002669;28;20360;-70
2022/03/19 08:44:09;;;;;;;42.35;20.15;;;;;;;;;;5002626;28;20026;-71
2022/03/19 08:46:35;;;;;;;39.95;20.80;;;;;;;;;;5001285;28;20026;-71
2022/03/19 08:49:00;;;;;;;47.10;23.60;;;;;;;;;;5005521;28;20158;-70
2022/03/19 08:51:41;;;;;;;39.60;19.38;;;;;;;;;;5002088;28;20057;-71
2022/03/19 08:54:12;;;;;;;38.38;17.90;;;;;;;;;;4992909;28;20441;-69
2022/03/19 08:56:38;;;;;;;37.92;19.27;;;;;;;;;;4983488;28;20377;-71
2022/03/19 08:59:05;;;;;;;41.63;21.63;;;;;;;;;;5002756;28;20298;-70
2022/03/19 09:01:31;;;;;;;38.15;19.33;;;;;;;;;;5002794;28;20026;-71
2022/03/19 09:03:57;;;;;;;40.58;20.63;;;;;;;;;;5001672;28;20239;-70
2022/03/19 09:06:22;;;;;;;46.47;23.08;;;;;;;;;;5001652;28;20023;-72
2022/03/19 09:08:51;;;;;;;43.08;22.83;;;;;;;;;;5001951;28;20033;-73
2022/03/19 09:11:18;;;;;;;40.55;22.05;;;;;;;;;;5011622;28;20076;-71
2022/03/19 09:13:48;;;;;;;41.22;21.42;;;;;;;;;;5002653;28;20077;-71
2022/03/19 09:16:14;;;;;;;46.78;22.00;;;;;;;;;;5001674;28;20030;-71
2022/03/19 09:18:39;;;;;;;39.75;21.48;;;;;;;;;;5001485;28;20086;-72
2022/03/19 09:21:05;;;;;;;45.90;22.73;;;;;;;;;;5013820;28;20348;-73
2022/03/19 09:23:30;;;;;;;42.92;19.80;;;;;;;;;;5018339;28;20022;-72
2022/03/19 09:25:56;;;;;;;43.97;21.58;;;;;;;;;;5001861;28;20089;-71
2022/03/19 09:28:21;;;;;;;36.00;18.90;;;;;;;;;;5001772;28;20192;-71
2022/03/19 09:30:47;;;;;;;48.15;22.25;;;;;;;;;;5001657;28;20154;-73
2022/03/19 09:33:12;;;;;;;41.85;20.83;;;;;;;;;;5001500;28;20037;-72
2022/03/19 09:35:38;;;;;;;35.17;18.35;;;;;;;;;;5005479;28;20049;-72
2022/03/19 09:38:03;;;;;;;42.47;22.55;;;;;;;;;;5012827;28;20050;-71
2022/03/19 09:40:29;;;;;;;40.30;21.20;;;;;;;;;;5004623;28;20030;-72
2022/03/19 09:42:59;;;;;;;38.30;20.10;;;;;;;;;;5006649;28;20026;-73
2022/03/19 09:45:26;;;;;;;43.25;20.92;;;;;;;;;;5001001;28;20111;-72
2022/03/19 09:47:55;;;;;;;41.78;21.83;;;;;;;;;;5000939;28;20042;-72
2022/03/19 09:50:21;;;;;;;40.13;20.95;;;;;;;;;;5000376;28;20280;-75
2022/03/19 09:52:50;;;;;;;40.97;19.63;;;;;;;;;;5010658;28;20034;-74
2022/03/19 09:55:17;;;;;;;39.95;21.17;;;;;;;;;;5003463;28;20038;-75
2022/03/19 09:57:43;;;;;;;39.97;21.90;;;;;;;;;;5006918;28;20038;-75
2022/03/19 10:00:09;;;;;;;44.35;22.27;;;;;;;;;;5001351;28;20029;-77
2022/03/19 10:02:59;;;;;;;37.90;20.25;;;;;;;;;;5005399;28;20033;-75
2022/03/19 10:10:57;;;;;;;42.15;20.95;;;;;;;;;;5012436;28;20254;-77
2022/03/19 10:13:24;;;;;;;41.30;21.88;;;;;;;;;;5023917;28;20033;-77
2022/03/19 10:15:50;;;;;;;40.00;20.85;;;;;;;;;;5004919;28;20038;-77
2022/03/19 10:18:15;;;;;;;38.58;21.00;;;;;;;;;;5024835;28;20344;-78
2022/03/19 10:20:42;;;;;;;36.58;20.50;;;;;;;;;;5022823;28;20044;-77
2022/03/19 10:23:08;;;;;;;39.05;18.95;;;;;;;;;;5012702;28;20169;-73
2022/03/19 10:25:33;;;;;;;35.20;18.70;;;;;;;;;;5002859;28;20421;-74
2022/03/19 10:28:09;;;;;;;36.92;20.48;;;;;;;;;;5004808;28;20030;-78
2022/03/19 10:30:41;;;;;;;38.17;19.15;;;;;;;;;;5005603;28;20026;-74
2022/03/19 10:33:09;;;;;;;38.13;20.83;;;;;;;;;;5017838;28;20026;-81
2022/03/19 10:35:39;;;;;;;38.03;21.00;;;;;;;;;;5003757;28;20030;-75
2022/03/19 10:38:22;;;;;;;38.25;20.98;;;;;;;;;;5002788;28;20053;-77
2022/03/19 10:40:51;;;;;;;38.72;20.55;;;;;;;;;;5003652;28;20040;-80
2022/03/19 10:43:18;;;;;;;38.30;20.42;;;;;;;;;;5003756;28;20085;-75
2022/03/19 10:45:45;;;;;;;38.78;20.52;;;;;;;;;;5012598;28;20108;-76
2022/03/19 10:48:12;;;;;;;38.22;20.38;;;;;;;;;;5017580;28;20030;-77
2022/03/19 10:50:41;;;;;;;37.65;19.92;;;;;;;;;;5011708;28;20097;-78
2022/03/19 10:53:07;;;;;;;38.95;20.27;;;;;;;;;;5008449;28;20036;-80
2022/03/19 10:55:34;;;;;;;38.38;21.08;;;;;;;;;;5003246;28;20022;-74
2022/03/19 10:57:59;;;;;;;38.50;20.90;;;;;;;;;;5004915;28;20033;-75
2022/03/19 11:00:25;;;;;;;38.10;20.58;;;;;;;;;;5004379;28;20026;-74
2022/03/19 11:02:54;;;;;;;35.00;19.50;;;;;;;;;;5006560;28;20026;-82
2022/03/19 11:05:21;;;;;;;37.95;20.85;;;;;;;;;;5010022;28;20225;-82
2022/03/19 11:07:47;;;;;;;38.92;20.95;;;;;;;;;;5007041;28;20085;-82
2022/03/19 11:10:13;;;;;;;34.75;18.38;;;;;;;;;;5004233;28;20018;-74
2022/03/19 11:12:43;;;;;;;36.35;19.80;;;;;;;;;;5002752;28;20029;-78
2022/03/19 11:15:10;;;;;;;35.45;20.40;;;;;;;;;;5004683;28;20078;-80
2022/03/19 11:17:40;;;;;;;37.58;19.85;;;;;;;;;;5003884;28;20029;-81
2022/03/19 11:20:09;;;;;;;35.33;19.63;;;;;;;;;;5013797;28;20033;-79
2022/03/19 11:22:41;;;;;;;37.60;20.75;;;;;;;;;;5001471;28;20318;-78
2022/03/19 11:25:16;;;;;;;34.22;19.17;;;;;;;;;;5000931;28;20034;-83
2022/03/19 11:27:47;;;;;;;36.88;21.05;;;;;;;;;;5002238;28;20018;-74
2022/03/19 11:30:21;;;;;;;36.22;19.88;;;;;;;;;;5007051;28;20026;-74
2022/03/19 11:33:00;;;;;;;35.28;19.15;;;;;;;;;;5023256;28;20097;-74
2022/03/19 11:35:26;;;;;;;36.80;20.77;;;;;;;;;;5013786;28;20318;-74
2022/03/19 11:38:11;;;;;;;34.58;18.85;;;;;;;;;;5003249;28;20279;-73
2022/03/19 11:40:50;;;;;;;40.97;20.83;;;;;;;;;;5009233;28;20026;-73
2022/03/19 11:43:26;;;;;;;35.47;20.60;;;;;;;;;;4987446;28;20238;-73
2022/03/19 11:46:03;;;;;;;36.55;20.25;;;;;;;;;;5003301;28;20379;-72
2022/03/19 11:48:34;;;;;;;34.05;19.10;;;;;;;;;;4998193;28;20249;-73
2022/03/19 11:51:37;;;;;;;33.95;19.83;;;;;;;;;;5009332;28;20034;-73
2022/03/19 11:54:19;;;;;;;34.47;18.67;;;;;;;;;;4983830;28;20022;-72
2022/03/19 11:56:44;;;;;;;33.15;17.92;;;;;;;;;;5001584;28;20034;-73
2022/03/19 11:59:15;;;;;;;35.67;19.00;;;;;;;;;;5003349;28;20057;-74
2022/03/19 12:01:58;;;;;;;38.95;20.88;;;;;;;;;;5020252;28;20057;-73
2022/03/19 12:04:24;;;;;;;34.83;19.33;;;;;;;;;;5015132;28;20049;-73
2022/03/19 12:06:57;;;;;;;35.38;20.30;;;;;;;;;;5003146;28;20042;-73
2022/03/19 12:09:41;;;;;;;36.92;19.55;;;;;;;;;;5003037;28;20030;-73
2022/03/19 12:12:16;;;;;;;36.00;20.50;;;;;;;;;;5002881;28;20023;-72
2022/03/19 12:14:42;;;;;;;35.90;19.88;;;;;;;;;;5003355;28;20023;-73
2022/03/19 12:17:20;;;;;;;35.33;19.60;;;;;;;;;;5002662;28;20142;-73
2022/03/19 12:20:04;;;;;;;34.38;19.33;;;;;;;;;;5002781;28;20093;-73
2022/03/19 12:22:35;;;;;;;38.08;20.40;;;;;;;;;;5002068;28;20037;-73
2022/03/19 12:25:10;;;;;;;37.65;20.73;;;;;;;;;;5011270;28;20025;-71
2022/03/19 12:27:36;;;;;;;35.78;19.60;;;;;;;;;;5002134;28;20030;-73
2022/03/19 12:30:02;;;;;;;34.10;20.60;;;;;;;;;;5002729;28;20296;-72
2022/03/19 12:32:28;;;;;;;34.78;19.27;;;;;;;;;;5001852;28;20041;-72
2022/03/19 12:35:00;;;;;;;32.33;17.73;;;;;;;;;;5002626;28;20053;-72
2022/03/19 12:37:25;;;;;;;37.47;21.10;;;;;;;;;;4998831;28;20329;-72
2022/03/19 12:40:01;;;;;;;34.72;20.23;;;;;;;;;;5002743;28;20029;-72
2022/03/19 12:42:33;;;;;;;40.55;21.02;;;;;;;;;;5001649;28;20025;-71
2022/03/19 12:45:01;;;;;;;35.10;20.10;;;;;;;;;;5016913;28;20029;-71
2022/03/19 12:47:27;;;;;;;36.15;21.05;;;;;;;;;;5017521;28;20034;-72
2022/03/19 12:49:53;;;;;;;37.25;20.77;;;;;;;;;;5022003;28;20036;-72
2022/03/19 12:52:19;;;;;;;38.30;22.55;;;;;;;;;;5021304;28;20021;-72
2022/03/19 12:54:46;;;;;;;30.85;17.25;;;;;;;;;;4997193;28;20233;-73
2022/03/19 12:57:15;;;;;;;39.05;21.35;;;;;;;;;;5003449;28;20270;-73
2022/03/19 12:59:57;;;;;;;37.88;19.45;;;;;;;;;;5001946;28;20034;-73
2022/03/19 13:02:25;;;;;;;37.58;19.75;;;;;;;;;;5001618;28;20030;-73
2022/03/19 13:04:51;;;;;;;38.80;21.50;;;;;;;;;;5003177;28;20029;-73
2022/03/19 13:07:17;;;;;;;39.90;22.75;;;;;;;;;;5001857;28;20217;-74
2022/03/19 13:09:45;;;;;;;36.80;21.45;;;;;;;;;;5009374;28;20046;-72
2022/03/19 13:12:22;;;;;;;38.83;22.52;;;;;;;;;;5015685;28;20018;-72
2022/03/19 13:14:53;;;;;;;33.33;18.48;;;;;;;;;;5009304;28;20465;-73
2022/03/19 13:17:20;;;;;;;38.33;21.35;;;;;;;;;;5011384;28;20022;-72
2022/03/19 13:19:46;;;;;;;36.03;20.88;;;;;;;;;;4982208;28;20098;-74
2022/03/19 13:22:18;;;;;;;36.33;20.48;;;;;;;;;;5001366;28;20030;-71
2022/03/19 13:24:49;;;;;;;36.58;19.92;;;;;;;;;;5016702;28;20034;-72
2022/03/19 13:27:15;;;;;;;36.20;20.98;;;;;;;;;;5020434;28;20026;-74
2022/03/19 13:29:40;;;;;;;40.50;21.08;;;;;;;;;;5002579;28;20106;-74
2022/03/19 13:32:09;;;;;;;37.50;21.20;;;;;;;;;;5000225;28;20022;-74
2022/03/19 13:34:37;;;;;;;36.47;20.92;;;;;;;;;;4999685;28;20033;-75
2022/03/19 13:37:05;;;;;;;37.88;20.77;;;;;;;;;;5000259;28;20046;-75
2022/03/19 13:39:41;;;;;;;39.53;21.13;;;;;;;;;;5000380;28;20205;-73
2022/03/19 13:42:07;;;;;;;37.25;19.95;;;;;;;;;;5008510;28;20030;-75
2022/03/19 13:44:35;;;;;;;37.20;21.17;;;;;;;;;;5011226;28;20040;-75
2022/03/19 13:47:04;;;;;;;31.40;18.67;;;;;;;;;;5001148;28;20035;-73
2022/03/19 13:49:35;;;;;;;38.25;21.80;;;;;;;;;;5003324;28;20077;-75
2022/03/19 13:52:00;;;;;;;38.40;20.77;;;;;;;;;;5011471;28;20093;-74
2022/03/19 13:54:45;;;;;;;39.97;21.98;;;;;;;;;;5002227;28;20366;-75
2022/03/19 13:57:13;;;;;;;37.28;21.20;;;;;;;;;;5020867;28;20078;-75
2022/03/19 13:59:38;;;;;;;39.35;21.60;;;;;;;;;;5011077;28;20043;-74
2022/03/19 14:02:04;;;;;;;37.63;21.40;;;;;;;;;;5005143;28;20208;-74
2022/03/19 14:04:29;;;;;;;37.50;20.35;;;;;;;;;;5005663;28;20027;-76
2022/03/19 14:06:55;;;;;;;37.00;20.45;;;;;;;;;;5000662;28;20042;-76
2022/03/19 14:09:21;;;;;;;35.80;21.10;;;;;;;;;;5007367;28;20093;-75
2022/03/19 14:11:48;;;;;;;38.17;21.70;;;;;;;;;;5001050;28;20034;-75
2022/03/19 14:14:20;;;;;;;35.90;19.88;;;;;;;;;;4998793;28;20027;-75
2022/03/19 14:16:57;;;;;;;38.40;21.77;;;;;;;;;;5004280;28;20199;-74
2022/03/19 14:19:23;;;;;;;38.28;21.17;;;;;;;;;;4999904;28;20326;-74
2022/03/19 14:21:48;;;;;;;38.15;20.90;;;;;;;;;;4999594;28;20028;-74
2022/03/19 14:24:14;;;;;;;36.08;20.92;;;;;;;;;;5000698;28;20093;-74
2022/03/19 14:26:39;;;;;;;38.38;21.23;;;;;;;;;;4999863;28;20037;-74
2022/03/19 14:29:05;;;;;;;38.15;22.20;;;;;;;;;;5002817;28;20298;-73
2022/03/19 14:31:31;;;;;;;41.35;22.73;;;;;;;;;;5000824;28;20018;-73
2022/03/19 14:33:56;;;;;;;38.85;21.35;;;;;;;;;;5001062;28;20033;-72
2022/03/19 14:36:22;;;;;;;41.50;22.45;;;;;;;;;;4999614;28;20022;-73
2022/03/19 14:38:49;;;;;;;40.83;21.13;;;;;;;;;;5001089;28;20028;-73